Time;durP1;ratioP1;P1;durP2;ratioP2;P2;SDS_P1;SDS_P2;PMS_P1;PMS_P2;Temp;Humidity;BMP_temperature;BMP_pressure;BME280_temperature;BME280_humidity;BME280_pressure;Samples;Min_cycle;Max_cycle;Signal;HPM_P1;HPM_P2
2021/04/13 00:00:33;;;;;;;12.50;6.80;;;;;;;;;;5027280;28;20397;-50
2021/04/13 00:03:04;;;;;;;54.13;25.77;;;;;;;;;;5034353;28;20087;-50
2021/04/13 00:05:31;;;;;;;14.23;7.15;;;;;;;;;;5034402;28;20025;-50
2021/04/13 00:07:58;;;;;;;40.08;21.92;;;;;;;;;;5033982;28;20045;-51
2021/04/13 00:10:27;;;;;;;103.95;51.45;;;;;;;;;;5034154;28;20033;-48
2021/04/13 00:12:53;;;;;;;29.65;17.13;;;;;;;;;;5034140;28;20032;-49
2021/04/13 00:15:24;;;;;;;19.95;9.30;;;;;;;;;;5033961;28;20033;-49
2021/04/13 00:17:50;;;;;;;14.98;8.15;;;;;;;;;;5034184;28;20116;-49
2021/04/13 00:20:22;;;;;;;22.85;9.43;;;;;;;;;;5034053;28;20468;-50
2021/04/13 00:22:49;;;;;;;33.38;16.80;;;;;;;;;;5034178;28;20021;-48
2021/04/13 00:25:27;;;;;;;25.23;12.70;;;;;;;;;;5038561;28;20057;-49
2021/04/13 00:27:53;;;;;;;22.88;13.10;;;;;;;;;;5076153;28;20044;-48
2021/04/13 00:30:22;;;;;;;9.15;6.55;;;;;;;;;;5075774;28;20033;-49
2021/04/13 00:32:57;;;;;;;10.02;5.30;;;;;;;;;;5075943;28;20028;-48
2021/04/13 00:38:15;;;;;;;33.83;15.40;;;;;;;;;;5075493;28;20440;-49
2021/04/13 00:40:42;;;;;;;25.45;14.30;;;;;;;;;;5033185;28;20476;-49
2021/04/13 00:43:10;;;;;;;31.40;17.65;;;;;;;;;;5033616;28;20536;-49
2021/04/13 00:45:38;;;;;;;46.25;21.38;;;;;;;;;;5033536;28;20033;-50
2021/04/13 00:48:06;;;;;;;36.00;17.65;;;;;;;;;;5033735;28;20025;-49
2021/04/13 00:50:40;;;;;;;19.98;11.23;;;;;;;;;;5033299;28;20041;-49
2021/04/13 00:53:11;;;;;;;45.78;21.85;;;;;;;;;;5033640;28;20120;-49
2021/04/13 00:55:37;;;;;;;;;;;;;;;;;;5034216;28;20025;-46
2021/04/13 00:58:15;;;;;;;42.85;21.95;;;;;;;;;;5033591;28;19928;-48
2021/04/13 01:00:47;;;;;;;18.30;8.88;;;;;;;;;;5033466;28;20017;-49
2021/04/13 01:03:14;;;;;;;60.00;29.73;;;;;;;;;;5033294;28;20548;-49
2021/04/13 01:05:46;;;;;;;18.20;8.93;;;;;;;;;;5033345;28;20490;-48
2021/04/13 01:08:16;;;;;;;18.67;10.07;;;;;;;;;;5032993;28;20045;-49
2021/04/13 01:10:43;;;;;;;92.53;49.95;;;;;;;;;;5033243;28;20156;-51
2021/04/13 01:13:10;;;;;;;38.92;19.58;;;;;;;;;;5033042;28;20040;-48
2021/04/13 01:15:37;;;;;;;20.15;11.68;;;;;;;;;;5033052;28;20021;-48
2021/04/13 01:18:05;;;;;;;29.63;16.80;;;;;;;;;;5059029;28;20041;-46
2021/04/13 01:20:53;;;;;;;25.85;14.30;;;;;;;;;;5074970;28;20020;-45
2021/04/13 01:23:33;;;;;;;24.10;13.05;;;;;;;;;;5074890;28;20020;-48
2021/04/13 01:26:01;;;;;;;15.80;9.98;;;;;;;;;;5074757;28;20104;-47
2021/04/13 01:28:31;;;;;;;20.27;11.50;;;;;;;;;;5074871;28;20294;-46
2021/04/13 01:31:04;;;;;;;14.00;9.00;;;;;;;;;;5074806;28;20033;-47
2021/04/13 01:33:53;;;;;;;16.00;9.27;;;;;;;;;;5074769;28;20020;-48
2021/04/13 01:36:31;;;;;;;11.30;6.85;;;;;;;;;;5074722;28;20035;-48
2021/04/13 01:39:24;;;;;;;19.20;10.25;;;;;;;;;;5074398;28;20029;-48
2021/04/13 01:41:59;;;;;;;10.13;7.03;;;;;;;;;;5074819;28;20032;-46
2021/04/13 01:44:29;;;;;;;9.70;6.47;;;;;;;;;;5074556;28;20055;-45
2021/04/13 01:46:55;;;;;;;13.55;6.35;;;;;;;;;;5074516;28;20036;-48
2021/04/13 01:49:21;;;;;;;8.15;6.50;;;;;;;;;;5074458;28;20032;-46
2021/04/13 01:51:47;;;;;;;9.43;6.75;;;;;;;;;;5074621;28;20365;-48
2021/04/13 01:54:15;;;;;;;8.32;6.45;;;;;;;;;;5073481;28;20020;-48
2021/04/13 01:56:42;;;;;;;9.23;6.07;;;;;;;;;;5074510;28;20052;-47
2021/04/13 01:59:13;;;;;;;7.68;5.13;;;;;;;;;;5074532;28;20021;-48
2021/04/13 02:01:41;;;;;;;9.23;4.97;;;;;;;;;;5074157;28;20094;-49
2021/04/13 02:04:23;;;;;;;8.13;4.78;;;;;;;;;;5074000;28;20031;-47
2021/04/13 02:07:21;;;;;;;10.32;5.43;;;;;;;;;;5074206;28;20029;-46
2021/04/13 02:09:54;;;;;;;7.90;6.18;;;;;;;;;;5073562;28;20416;-45
2021/04/13 02:12:24;;;;;;;7.03;5.72;;;;;;;;;;5074052;28;20365;-46
2021/04/13 02:14:54;;;;;;;6.45;5.38;;;;;;;;;;5074127;28;20468;-45
2021/04/13 02:17:41;;;;;;;6.05;5.38;;;;;;;;;;5073811;28;20492;-46
2021/04/13 02:20:12;;;;;;;7.75;5.85;;;;;;;;;;5073513;28;20064;-48
2021/04/13 02:22:43;;;;;;;6.53;4.63;;;;;;;;;;5073735;28;20017;-48
2021/04/13 02:25:09;;;;;;;9.38;4.57;;;;;;;;;;5073718;28;20028;-48
2021/04/13 02:27:38;;;;;;;4.53;4.13;;;;;;;;;;5073912;28;20144;-48
2021/04/13 02:30:12;;;;;;;5.85;4.50;;;;;;;;;;5073638;28;20028;-48
2021/04/13 02:32:44;;;;;;;4.35;3.95;;;;;;;;;;5073527;28;20024;-48
2021/04/13 02:35:24;;;;;;;6.60;4.60;;;;;;;;;;5073927;28;20024;-47
2021/04/13 02:37:52;;;;;;;4.10;3.80;;;;;;;;;;5073368;28;20032;-48
2021/04/13 02:40:26;;;;;;;5.93;3.75;;;;;;;;;;5073488;28;20028;-47
2021/04/13 02:42:55;;;;;;;7.68;4.63;;;;;;;;;;5073503;28;20039;-48
2021/04/13 02:45:24;;;;;;;4.93;4.50;;;;;;;;;;5073509;28;20020;-49
2021/04/13 02:47:53;;;;;;;5.30;4.80;;;;;;;;;;5073509;28;20020;-47
2021/04/13 02:50:20;;;;;;;4.68;4.28;;;;;;;;;;5073345;28;20472;-48
2021/04/13 02:52:49;;;;;;;5.82;4.55;;;;;;;;;;5073354;28;20052;-48
2021/04/13 02:55:26;;;;;;;6.07;4.60;;;;;;;;;;5073454;28;20476;-49
2021/04/13 02:57:56;;;;;;;7.85;4.55;;;;;;;;;;5073222;28;20472;-49
2021/04/13 03:00:29;;;;;;;5.10;4.60;;;;;;;;;;5073392;28;20570;-47
2021/04/13 03:03:04;;;;;;;4.68;4.28;;;;;;;;;;5073243;28;20075;-49
2021/04/13 03:05:31;;;;;;;4.45;4.03;;;;;;;;;;5073245;28;20044;-47
2021/04/13 03:07:58;;;;;;;5.40;4.55;;;;;;;;;;5072813;28;20096;-47
2021/04/13 03:10:29;;;;;;;9.50;4.72;;;;;;;;;;5073144;28;20043;-48
2021/04/13 03:12:58;;;;;;;7.57;4.53;;;;;;;;;;5073298;28;20013;-48
2021/04/13 03:15:25;;;;;;;4.93;4.43;;;;;;;;;;5073307;28;20135;-50
2021/04/13 03:17:53;;;;;;;7.75;4.50;;;;;;;;;;5073096;28;20056;-49
2021/04/13 03:20:22;;;;;;;5.50;4.70;;;;;;;;;;5073075;28;20022;-45
2021/04/13 03:22:50;;;;;;;5.00;4.53;;;;;;;;;;5073119;28;20020;-47
2021/04/13 03:25:17;;;;;;;5.25;4.68;;;;;;;;;;5073240;28;20531;-50
2021/04/13 03:27:43;;;;;;;5.05;4.45;;;;;;;;;;5055107;28;20094;-47
2021/04/13 03:30:19;;;;;;;6.32;4.25;;;;;;;;;;5072860;28;20111;-48
2021/04/13 03:32:51;;;;;;;4.78;4.35;;;;;;;;;;5073011;28;20103;-48
2021/04/13 03:35:18;;;;;;;5.18;4.18;;;;;;;;;;5072877;28;20071;-49
2021/04/13 03:37:44;;;;;;;6.03;4.13;;;;;;;;;;5072946;28;20028;-49
2021/04/13 03:40:14;;;;;;;6.55;4.65;;;;;;;;;;5072847;28;20055;-49
2021/04/13 03:42:40;;;;;;;3.95;3.58;;;;;;;;;;5072939;28;20032;-48
2021/04/13 03:45:08;;;;;;;6.57;5.00;;;;;;;;;;5072857;28;20112;-46
2021/04/13 03:47:35;;;;;;;4.70;4.30;;;;;;;;;;5072949;28;20595;-47
2021/04/13 03:50:05;;;;;;;4.72;4.22;;;;;;;;;;5072631;28;20044;-46
2021/04/13 03:52:32;;;;;;;11.88;4.80;;;;;;;;;;5072889;28;20024;-50
2021/04/13 03:55:11;;;;;;;10.75;4.53;;;;;;;;;;5072754;28;20035;-51
2021/04/13 03:57:37;;;;;;;4.53;4.13;;;;;;;;;;5072667;28;20020;-50
2021/04/13 04:00:15;;;;;;;4.70;4.10;;;;;;;;;;5054786;28;20435;-46
2021/04/13 04:02:41;;;;;;;4.13;3.72;;;;;;;;;;5072613;28;20036;-49
2021/04/13 04:05:11;;;;;;;4.47;4.03;;;;;;;;;;5072960;28;20353;-49
2021/04/13 04:07:43;;;;;;;8.55;4.60;;;;;;;;;;5072902;28;20476;-47
2021/04/13 04:10:28;;;;;;;6.22;3.80;;;;;;;;;;5072186;28;20061;-50
2021/04/13 04:13:00;;;;;;;5.80;4.38;;;;;;;;;;5072818;28;20024;-46
2021/04/13 04:15:29;;;;;;;6.00;4.80;;;;;;;;;;5072666;28;20091;-48
2021/04/13 04:17:55;;;;;;;5.15;4.40;;;;;;;;;;5075786;28;20358;-50
2021/04/13 04:20:31;;;;;;;5.20;4.00;;;;;;;;;;5076058;28;20028;-47
2021/04/13 04:22:57;;;;;;;7.30;4.35;;;;;;;;;;5076130;28;20484;-51
2021/04/13 04:25:43;;;;;;;7.68;4.40;;;;;;;;;;5076037;28;20469;-49
2021/04/13 04:28:36;;;;;;;4.00;3.67;;;;;;;;;;5075944;28;20091;-46
2021/04/13 04:31:20;;;;;;;4.32;3.53;;;;;;;;;;5073000;28;20052;-46
2021/04/13 04:33:48;;;;;;;10.18;5.75;;;;;;;;;;5075971;28;20032;-47
2021/04/13 04:36:29;;;;;;;20.27;8.50;;;;;;;;;;5076049;28;20142;-47
2021/04/13 04:38:55;;;;;;;26.40;16.40;;;;;;;;;;5075678;28;20032;-48
2021/04/13 04:41:41;;;;;;;28.65;19.05;;;;;;;;;;5075780;28;20024;-48
2021/04/13 04:44:07;;;;;;;33.67;16.67;;;;;;;;;;5075920;28;20067;-48
2021/04/13 04:46:43;;;;;;;28.63;17.77;;;;;;;;;;5075619;28;20495;-47
2021/04/13 04:49:10;;;;;;;45.88;22.27;;;;;;;;;;5075756;28;20431;-48
2021/04/13 04:51:37;;;;;;;46.95;21.60;;;;;;;;;;5075665;28;20166;-49
2021/04/13 04:54:03;;;;;;;30.65;17.05;;;;;;;;;;5075390;28;20036;-49
2021/04/13 04:56:29;;;;;;;28.73;16.60;;;;;;;;;;5075425;28;20038;-47
2021/04/13 04:58:58;;;;;;;20.80;11.52;;;;;;;;;;5075368;28;20020;-48
2021/04/13 05:01:24;;;;;;;15.45;8.55;;;;;;;;;;5075600;28;20056;-48
2021/04/13 05:03:51;;;;;;;23.35;12.32;;;;;;;;;;5075327;28;20024;-49
2021/04/13 05:06:18;;;;;;;8.60;6.05;;;;;;;;;;5075365;28;20029;-48
2021/04/13 05:08:44;;;;;;;14.57;8.27;;;;;;;;;;5074835;28;20059;-50
2021/04/13 05:11:10;;;;;;;13.75;8.68;;;;;;;;;;5075029;28;20435;-48
2021/04/13 05:13:37;;;;;;;14.80;8.90;;;;;;;;;;5075261;28;20024;-49
2021/04/13 05:16:03;;;;;;;14.90;8.23;;;;;;;;;;5075015;28;20071;-47
2021/04/13 05:18:29;;;;;;;15.60;7.40;;;;;;;;;;5075133;28;20028;-48
2021/04/13 05:20:55;;;;;;;10.63;7.65;;;;;;;;;;5075078;28;20025;-48
2021/04/13 05:23:22;;;;;;;13.27;6.75;;;;;;;;;;5075113;28;20029;-48
2021/04/13 05:25:48;;;;;;;9.75;6.70;;;;;;;;;;5074879;28;20025;-44
2021/04/13 05:28:15;;;;;;;8.20;4.85;;;;;;;;;;5074969;28;20031;-46
2021/04/13 05:30:41;;;;;;;9.90;5.60;;;;;;;;;;5074864;28;20032;-47
2021/04/13 05:33:07;;;;;;;18.88;5.97;;;;;;;;;;5074889;28;20020;-46
2021/04/13 05:35:33;;;;;;;12.38;5.68;;;;;;;;;;5075029;28;20024;-46
2021/04/13 05:38:07;;;;;;;10.13;5.78;;;;;;;;;;5074777;28;20020;-46
2021/04/13 05:40:34;;;;;;;14.98;5.68;;;;;;;;;;5074644;28;20024;-48
2021/04/13 05:43:00;;;;;;;6.85;5.05;;;;;;;;;;5074654;28;20114;-46
2021/04/13 05:45:28;;;;;;;7.45;5.68;;;;;;;;;;5074580;28;20488;-46
2021/04/13 05:47:54;;;;;;;16.70;6.57;;;;;;;;;;5074465;28;20024;-46
2021/04/13 05:50:32;;;;;;;11.52;4.78;;;;;;;;;;5074407;28;20037;-46
2021/04/13 05:52:58;;;;;;;7.20;4.88;;;;;;;;;;5074309;28;20031;-46
2021/04/13 05:55:24;;;;;;;11.82;4.63;;;;;;;;;;5074272;28;20017;-46
2021/04/13 05:57:52;;;;;;;12.93;5.50;;;;;;;;;;5074239;28;20481;-46
2021/04/13 06:00:19;;;;;;;6.10;4.15;;;;;;;;;;5074171;28;20035;-45
2021/04/13 06:02:46;;;;;;;11.00;5.60;;;;;;;;;;5074237;28;20038;-45
2021/04/13 06:05:13;;;;;;;16.60;6.15;;;;;;;;;;5074138;28;20032;-46
2021/04/13 06:07:39;;;;;;;9.52;5.20;;;;;;;;;;5074051;28;20075;-46
2021/04/13 06:10:06;;;;;;;7.95;5.32;;;;;;;;;;5073640;28;20053;-46
2021/04/13 06:12:32;;;;;;;4.80;3.85;;;;;;;;;;5074537;28;20527;-47
2021/04/13 06:14:58;;;;;;;17.52;4.47;;;;;;;;;;5073988;28;20071;-47
2021/04/13 06:17:24;;;;;;;10.23;5.75;;;;;;;;;;5074231;28;20402;-47
2021/04/13 06:19:50;;;;;;;45.70;21.15;;;;;;;;;;5073994;28;20027;-49
2021/04/13 06:22:16;;;;;;;42.30;21.50;;;;;;;;;;5073760;28;20035;-50
2021/04/13 06:24:43;;;;;;;41.13;20.75;;;;;;;;;;5073807;28;20024;-47
2021/04/13 06:27:09;;;;;;;35.33;18.88;;;;;;;;;;5073788;28;20025;-48
2021/04/13 06:29:38;;;;;;;40.20;18.85;;;;;;;;;;5073806;28;20032;-51
2021/04/13 06:32:05;;;;;;;20.95;12.35;;;;;;;;;;5073727;28;20103;-51
2021/04/13 06:34:31;;;;;;;11.55;6.43;;;;;;;;;;5084645;28;20024;-48
2021/04/13 06:36:58;;;;;;;17.15;10.40;;;;;;;;;;5073450;28;20032;-53
2021/04/13 06:39:24;;;;;;;48.28;26.98;;;;;;;;;;5073001;28;20089;-52
2021/04/13 06:41:50;;;;;;;32.17;18.75;;;;;;;;;;5073530;28;20040;-54
2021/04/13 06:44:32;;;;;;;39.42;22.27;;;;;;;;;;5081413;28;20024;-54
2021/04/13 06:47:07;;;;;;;40.00;21.50;;;;;;;;;;5091410;28;20020;-54
2021/04/13 06:50:03;;;;;;;19.85;11.80;;;;;;;;;;5085599;28;20017;-49
2021/04/13 06:52:53;;;;;;;19.67;11.40;;;;;;;;;;5090960;28;20020;-54
2021/04/13 06:55:39;;;;;;;46.20;25.08;;;;;;;;;;4990513;28;20030;-54
2021/04/13 06:58:22;;;;;;;33.88;19.45;;;;;;;;;;4990033;28;20031;-54
2021/04/13 07:00:51;;;;;;;18.02;10.38;;;;;;;;;;4987174;28;20109;-52
2021/04/13 07:03:23;;;;;;;16.95;10.27;;;;;;;;;;4985571;28;20145;-51
2021/04/13 07:05:49;;;;;;;14.60;8.63;;;;;;;;;;4987333;28;20572;-53
2021/04/13 07:08:15;;;;;;;13.32;5.82;;;;;;;;;;4990326;28;20073;-55
2021/04/13 07:10:48;;;;;;;10.93;7.30;;;;;;;;;;4978935;28;20441;-52
2021/04/13 07:13:30;;;;;;;15.25;9.20;;;;;;;;;;4972759;28;20035;-53
2021/04/13 07:15:59;;;;;;;7.95;5.75;;;;;;;;;;4972721;28;20049;-53
2021/04/13 07:18:31;;;;;;;12.23;6.72;;;;;;;;;;4994632;28;20426;-53
2021/04/13 07:21:13;;;;;;;14.45;6.55;;;;;;;;;;4992645;28;20055;-53
2021/04/13 07:23:46;;;;;;;8.50;5.82;;;;;;;;;;5016164;28;20410;-53
2021/04/13 07:26:20;;;;;;;9.63;6.38;;;;;;;;;;5006570;28;20501;-52
2021/04/13 07:28:53;;;;;;;15.60;7.72;;;;;;;;;;4992065;28;20121;-53
2021/04/13 07:31:23;;;;;;;49.00;25.08;;;;;;;;;;4997587;28;20042;-52
2021/04/13 07:33:49;;;;;;;65.15;32.17;;;;;;;;;;5072267;28;20112;-52
2021/04/13 07:36:23;;;;;;;24.55;12.65;;;;;;;;;;5056130;28;20043;-52
2021/04/13 07:38:50;;;;;;;36.50;18.38;;;;;;;;;;5076063;28;20116;-53
2021/04/13 07:41:46;;;;;;;38.00;19.85;;;;;;;;;;5078437;28;20380;-53
2021/04/13 07:44:15;;;;;;;16.20;9.85;;;;;;;;;;5016213;28;20034;-53
2021/04/13 07:46:41;;;;;;;13.00;8.60;;;;;;;;;;5026938;28;20040;-53
2021/04/13 07:49:13;;;;;;;23.23;11.98;;;;;;;;;;5012360;28;20064;-55
2021/04/13 07:51:40;;;;;;;33.60;19.33;;;;;;;;;;5012428;28;20069;-53
2021/04/13 07:54:08;;;;;;;34.40;19.60;;;;;;;;;;5014883;28;20065;-52
2021/04/13 07:56:38;;;;;;;64.78;30.98;;;;;;;;;;5014819;28;20068;-51
2021/04/13 07:59:13;;;;;;;26.30;13.10;;;;;;;;;;5014798;28;20034;-50
2021/04/13 08:01:40;;;;;;;24.67;11.30;;;;;;;;;;5014581;28;20084;-52
2021/04/13 08:04:06;;;;;;;56.58;32.42;;;;;;;;;;5014298;28;20034;-52
2021/04/13 08:06:34;;;;;;;20.40;11.57;;;;;;;;;;5020887;28;20026;-52
2021/04/13 08:09:19;;;;;;;45.17;20.08;;;;;;;;;;5031394;28;20053;-49
2021/04/13 08:11:57;;;;;;;62.83;29.48;;;;;;;;;;5025632;28;20092;-50
2021/04/13 08:14:29;;;;;;;44.25;20.20;;;;;;;;;;5015121;28;20485;-48
2021/04/13 08:17:04;;;;;;;51.22;25.75;;;;;;;;;;5031461;28;20021;-49
2021/04/13 08:19:32;;;;;;;18.85;10.23;;;;;;;;;;5037693;28;20576;-50
2021/04/13 08:22:11;;;;;;;21.30;11.23;;;;;;;;;;5095903;28;20085;-50
2021/04/13 08:24:37;;;;;;;31.63;18.70;;;;;;;;;;5096333;28;20027;-51
2021/04/13 08:27:29;;;;;;;19.75;10.10;;;;;;;;;;5096433;28;20472;-52
2021/04/13 08:30:10;;;;;;;56.75;16.00;;;;;;;;;;5092277;28;20044;-49
2021/04/13 08:32:52;;;;;;;30.73;9.23;;;;;;;;;;5095990;28;20032;-52
2021/04/13 08:35:21;;;;;;;26.35;8.70;;;;;;;;;;5096319;28;20016;-52
2021/04/13 08:37:56;;;;;;;14.10;6.97;;;;;;;;;;5095963;28;20106;-50
2021/04/13 08:40:28;;;;;;;10.80;6.63;;;;;;;;;;5096028;28;20024;-53
2021/04/13 08:43:00;;;;;;;16.75;5.47;;;;;;;;;;5077919;28;20070;-50
2021/04/13 08:45:32;;;;;;;12.35;5.28;;;;;;;;;;5096134;28;20032;-52
2021/04/13 08:48:05;;;;;;;9.30;5.32;;;;;;;;;;5096033;28;20031;-53
2021/04/13 08:50:34;;;;;;;8.85;4.70;;;;;;;;;;5095814;28;20051;-50
2021/04/13 08:53:02;;;;;;;13.93;4.82;;;;;;;;;;5095916;28;20182;-49
2021/04/13 08:55:48;;;;;;;15.10;6.03;;;;;;;;;;5095786;28;20024;-52
2021/04/13 08:58:16;;;;;;;23.25;8.02;;;;;;;;;;5095871;28;20031;-51
2021/04/13 09:00:46;;;;;;;21.02;10.38;;;;;;;;;;5095798;28;20016;-51
2021/04/13 09:03:16;;;;;;;18.23;8.70;;;;;;;;;;5095400;28;20024;-51
2021/04/13 09:05:43;;;;;;;13.82;8.10;;;;;;;;;;5095578;28;20457;-51
2021/04/13 09:08:27;;;;;;;24.40;11.63;;;;;;;;;;5095332;28;20349;-52
2021/04/13 09:11:05;;;;;;;60.30;30.88;;;;;;;;;;5095432;28;20162;-50
2021/04/13 09:13:34;;;;;;;28.88;15.25;;;;;;;;;;5095564;28;20035;-52
2021/04/13 09:16:07;;;;;;;17.98;9.27;;;;;;;;;;5095362;28;20089;-54
2021/04/13 09:18:48;;;;;;;12.95;8.32;;;;;;;;;;5095251;28;20491;-51
2021/04/13 09:21:16;;;;;;;12.50;7.63;;;;;;;;;;5077695;28;20090;-51
2021/04/13 09:23:57;;;;;;;9.07;5.45;;;;;;;;;;5095385;28;20023;-50
2021/04/13 09:26:23;;;;;;;;;;;;;;;;;;5095676;28;20521;-51
2021/04/13 09:28:49;;;;;;;27.40;14.13;;;;;;;;;;5095387;28;19907;-52
2021/04/13 09:31:19;;;;;;;26.63;13.45;;;;;;;;;;5094952;28;20038;-51
2021/04/13 09:33:45;;;;;;;17.77;9.82;;;;;;;;;;5095092;28;20115;-50
2021/04/13 09:36:14;;;;;;;31.95;17.42;;;;;;;;;;5095050;28;20107;-49
2021/04/13 09:38:59;;;;;;;27.30;14.45;;;;;;;;;;5095143;28;20119;-49
2021/04/13 09:41:25;;;;;;;13.13;7.93;;;;;;;;;;5094769;28;20012;-49
2021/04/13 09:43:51;;;;;;;17.10;7.40;;;;;;;;;;5094955;28;20063;-49
2021/04/13 09:46:26;;;;;;;14.13;6.40;;;;;;;;;;5094854;28;20016;-52
2021/04/13 09:48:55;;;;;;;12.30;6.22;;;;;;;;;;5095080;28;20035;-51
2021/04/13 09:51:48;;;;;;;10.18;5.97;;;;;;;;;;5094868;28;20035;-51
2021/04/13 09:54:34;;;;;;;10.60;6.55;;;;;;;;;;5091061;28;20093;-51
2021/04/13 09:57:19;;;;;;;14.23;5.55;;;;;;;;;;5094751;28;20028;-51
2021/04/13 09:59:57;;;;;;;10.05;5.45;;;;;;;;;;5094734;28;20496;-51
2021/04/13 10:02:32;;;;;;;11.10;6.50;;;;;;;;;;5094757;28;20039;-50
2021/04/13 10:05:09;;;;;;;19.67;8.15;;;;;;;;;;5094335;28;20120;-50
2021/04/13 10:07:41;;;;;;;11.93;7.32;;;;;;;;;;5094743;28;20428;-50
2021/04/13 10:10:13;;;;;;;9.75;7.20;;;;;;;;;;5093979;28;20052;-49
2021/04/13 10:12:58;;;;;;;9.13;6.55;;;;;;;;;;5094484;28;20031;-50
2021/04/13 10:15:43;;;;;;;12.00;7.00;;;;;;;;;;5093524;28;20450;-52
2021/04/13 10:18:21;;;;;;;23.23;10.45;;;;;;;;;;5094100;28;20028;-50
2021/04/13 10:21:06;;;;;;;19.48;10.02;;;;;;;;;;5094530;28;20028;-50
2021/04/13 10:23:32;;;;;;;13.93;7.80;;;;;;;;;;5094140;28;20035;-50
2021/04/13 10:26:16;;;;;;;9.90;6.53;;;;;;;;;;5093929;28;20115;-51
2021/04/13 10:29:02;;;;;;;14.15;8.32;;;;;;;;;;5094286;28;20024;-49
2021/04/13 10:31:58;;;;;;;24.15;12.80;;;;;;;;;;5011931;28;20545;-50
2021/04/13 10:34:45;;;;;;;27.48;15.63;;;;;;;;;;5012001;28;20032;-50
2021/04/13 10:37:37;;;;;;;46.40;24.92;;;;;;;;;;5012173;28;20515;-50
2021/04/13 10:40:06;;;;;;;26.67;14.70;;;;;;;;;;4989445;28;20543;-51
2021/04/13 10:42:41;;;;;;;20.40;12.77;;;;;;;;;;5011995;28;20042;-54
2021/04/13 10:45:22;;;;;;;17.67;8.88;;;;;;;;;;5011975;28;20536;-52
2021/04/13 10:48:11;;;;;;;16.73;9.75;;;;;;;;;;5011996;28;20096;-51
2021/04/13 10:50:55;;;;;;;12.45;6.75;;;;;;;;;;5011775;28;20489;-50
2021/04/13 10:53:47;;;;;;;20.17;11.02;;;;;;;;;;5011696;28;20026;-54
2021/04/13 10:56:28;;;;;;;24.88;15.20;;;;;;;;;;5011613;28;20042;-49
2021/04/13 10:59:13;;;;;;;25.25;16.45;;;;;;;;;;5011657;28;20030;-50
2021/04/13 11:01:57;;;;;;;21.40;15.07;;;;;;;;;;5011574;28;20030;-51
2021/04/13 11:04:42;;;;;;;19.40;12.15;;;;;;;;;;5011552;28;20049;-49
2021/04/13 11:07:26;;;;;;;11.25;6.95;;;;;;;;;;5011620;28;20030;-51
2021/04/13 11:09:53;;;;;;;10.18;6.18;;;;;;;;;;5093134;28;20405;-51
2021/04/13 11:12:22;;;;;;;16.38;7.57;;;;;;;;;;5093372;28;20040;-53
2021/04/13 11:14:48;;;;;;;12.60;7.30;;;;;;;;;;5093518;28;20024;-52
2021/04/13 11:17:37;;;;;;;13.40;9.15;;;;;;;;;;5093584;28;20032;-52
2021/04/13 11:20:23;;;;;;;13.35;7.63;;;;;;;;;;5093299;28;20024;-53
2021/04/13 11:23:08;;;;;;;12.85;8.30;;;;;;;;;;5093407;28;20107;-53
2021/04/13 11:25:34;;;;;;;14.30;9.13;;;;;;;;;;5094765;28;20025;-51
2021/04/13 11:28:03;;;;;;;8.63;6.80;;;;;;;;;;5097601;28;20024;-54
2021/04/13 11:30:38;;;;;;;11.48;7.70;;;;;;;;;;5097360;28;20040;-51
2021/04/13 11:33:08;;;;;;;9.80;6.30;;;;;;;;;;5097925;28;20024;-54
2021/04/13 11:35:34;;;;;;;8.68;6.20;;;;;;;;;;5097370;28;20989;-53
2021/04/13 11:38:18;;;;;;;9.77;6.50;;;;;;;;;;5097453;28;20052;-49
2021/04/13 11:40:55;;;;;;;11.32;5.97;;;;;;;;;;5097534;28;20074;-49
2021/04/13 11:43:23;;;;;;;7.90;5.45;;;;;;;;;;5097364;28;20026;-49
2021/04/13 11:45:52;;;;;;;10.30;6.57;;;;;;;;;;5078438;28;20028;-49
2021/04/13 11:48:36;;;;;;;7.97;6.00;;;;;;;;;;5097112;28;20099;-49
2021/04/13 11:51:08;;;;;;;9.02;6.43;;;;;;;;;;5096934;28;20028;-52
2021/04/13 11:53:34;;;;;;;;;;;;;;;;;;5097407;28;20016;-50
2021/04/13 11:56:00;;;;;;;10.38;6.43;;;;;;;;;;5097132;28;19911;-50
2021/04/13 11:58:34;;;;;;;8.68;6.10;;;;;;;;;;5096862;28;20032;-53
2021/04/13 12:01:18;;;;;;;10.60;6.60;;;;;;;;;;5097006;28;20032;-50
2021/04/13 12:03:58;;;;;;;9.93;6.72;;;;;;;;;;5096560;28;20048;-50
2021/04/13 12:06:42;;;;;;;7.95;5.13;;;;;;;;;;5078775;28;20031;-49
2021/04/13 12:09:09;;;;;;;12.50;5.43;;;;;;;;;;5096480;28;20109;-53
2021/04/13 12:11:42;;;;;;;6.55;4.28;;;;;;;;;;5096961;28;20086;-50
2021/04/13 12:14:26;;;;;;;11.40;5.75;;;;;;;;;;5096999;28;20123;-50
2021/04/13 12:16:52;;;;;;;14.05;8.63;;;;;;;;;;5096554;28;20024;-50
2021/04/13 12:19:19;;;;;;;15.90;9.05;;;;;;;;;;5096517;28;20464;-50
2021/04/13 12:21:46;;;;;;;19.45;8.90;;;;;;;;;;5096623;28;20065;-49
2021/04/13 12:24:21;;;;;;;12.63;7.70;;;;;;;;;;5096534;28;20020;-50
2021/04/13 12:26:47;;;;;;;12.23;7.38;;;;;;;;;;5096510;28;20028;-50
2021/04/13 12:29:32;;;;;;;8.90;6.28;;;;;;;;;;5096977;28;20482;-49
2021/04/13 12:32:13;;;;;;;11.93;7.63;;;;;;;;;;5096332;28;20036;-49
2021/04/13 12:34:39;;;;;;;;;;;;;;;;;;5096613;28;20036;-50
2021/04/13 12:37:05;;;;;;;8.98;6.10;;;;;;;;;;5095676;28;20359;-51
2021/04/13 12:39:41;;;;;;;7.45;5.65;;;;;;;;;;5096044;28;20036;-51
2021/04/13 12:42:08;;;;;;;9.23;5.80;;;;;;;;;;5096109;28;20085;-50
2021/04/13 12:44:34;;;;;;;8.05;5.00;;;;;;;;;;5095995;28;20024;-51
2021/04/13 12:47:01;;;;;;;6.90;5.18;;;;;;;;;;5096261;28;20031;-51
2021/04/13 12:49:34;;;;;;;7.90;4.57;;;;;;;;;;5096180;28;20034;-51
2021/04/13 12:52:01;;;;;;;7.35;4.85;;;;;;;;;;5095858;28;20036;-51
2021/04/13 12:54:34;;;;;;;11.60;7.07;;;;;;;;;;5095682;28;20422;-51
2021/04/13 12:57:00;;;;;;;10.05;6.82;;;;;;;;;;5076818;28;20361;-50
2021/04/13 12:59:28;;;;;;;10.27;7.15;;;;;;;;;;5078642;28;20457;-52
2021/04/13 13:01:56;;;;;;;11.57;8.35;;;;;;;;;;5075371;28;20028;-49
2021/04/13 13:04:24;;;;;;;22.95;15.60;;;;;;;;;;5074793;28;20396;-51
2021/04/13 13:06:55;;;;;;;23.33;12.07;;;;;;;;;;5075142;28;20056;-52
2021/04/13 13:09:21;;;;;;;17.58;11.70;;;;;;;;;;5075142;28;20399;-52
2021/04/13 13:11:55;;;;;;;27.98;19.60;;;;;;;;;;5075155;28;20089;-53
2021/04/13 13:14:22;;;;;;;48.83;30.02;;;;;;;;;;5075302;28;20459;-53
2021/04/13 13:16:53;;;;;;;28.42;18.08;;;;;;;;;;5073991;28;20388;-53
2021/04/13 13:19:27;;;;;;;22.27;13.20;;;;;;;;;;5075040;28;20103;-54
2021/04/13 13:21:55;;;;;;;19.80;12.80;;;;;;;;;;5075044;28;20023;-52
2021/04/13 13:24:25;;;;;;;29.02;16.20;;;;;;;;;;5074972;28;20047;-53
2021/04/13 13:26:51;;;;;;;15.25;10.52;;;;;;;;;;5074833;28;20041;-51
2021/04/13 13:29:17;;;;;;;23.38;14.57;;;;;;;;;;5089996;28;20484;-53
2021/04/13 13:31:44;;;;;;;27.98;18.73;;;;;;;;;;5095066;28;20478;-53
2021/04/13 13:34:19;;;;;;;25.08;16.00;;;;;;;;;;5095038;28;20024;-55
2021/04/13 13:36:47;;;;;;;28.75;17.27;;;;;;;;;;5095066;28;20503;-49
2021/04/13 13:39:25;;;;;;;46.45;26.40;;;;;;;;;;5094554;28;20464;-52
2021/04/13 13:41:53;;;;;;;23.50;15.32;;;;;;;;;;5094883;28;20107;-50
2021/04/13 13:44:24;;;;;;;60.63;37.30;;;;;;;;;;5094690;28;20024;-53
2021/04/13 13:47:00;;;;;;;17.92;13.43;;;;;;;;;;5094793;28;20012;-52
2021/04/13 13:49:26;;;;;;;26.02;15.30;;;;;;;;;;5093710;28;20028;-50
2021/04/13 13:52:11;;;;;;;62.88;33.88;;;;;;;;;;5094509;28;20033;-49
2021/04/13 13:54:37;;;;;;;34.03;20.83;;;;;;;;;;5094633;28;20023;-49
2021/04/13 13:57:17;;;;;;;46.25;26.13;;;;;;;;;;5094731;28;20387;-48
2021/04/13 13:59:48;;;;;;;39.55;21.13;;;;;;;;;;5094408;28;20024;-52
2021/04/13 14:02:14;;;;;;;23.38;14.57;;;;;;;;;;5094429;28;20020;-53
2021/04/13 14:04:41;;;;;;;19.75;12.50;;;;;;;;;;5094280;28;20028;-52
2021/04/13 14:07:08;;;;;;;25.65;14.40;;;;;;;;;;5094610;28;20024;-49
2021/04/13 14:09:35;;;;;;;29.63;16.00;;;;;;;;;;5093879;28;20127;-50
2021/04/13 14:12:20;;;;;;;30.88;16.88;;;;;;;;;;5094013;28;20028;-51
2021/04/13 14:14:46;;;;;;;34.75;19.98;;;;;;;;;;5094191;28;20024;-51
2021/04/13 14:17:14;;;;;;;29.58;17.40;;;;;;;;;;5094051;28;20031;-50
2021/04/13 14:19:41;;;;;;;31.27;20.30;;;;;;;;;;5094090;28;20027;-52
2021/04/13 14:22:09;;;;;;;66.95;37.63;;;;;;;;;;5094315;28;20547;-52
2021/04/13 14:24:39;;;;;;;39.25;22.73;;;;;;;;;;5094167;28;20024;-48
2021/04/13 14:27:14;;;;;;;34.42;20.02;;;;;;;;;;5094179;28;20047;-50
2021/04/13 14:29:42;;;;;;;34.42;19.25;;;;;;;;;;5093698;28;20021;-53
2021/04/13 14:32:08;;;;;;;23.88;14.57;;;;;;;;;;5081258;28;20044;-54
2021/04/13 14:34:36;;;;;;;28.77;14.90;;;;;;;;;;5057983;28;20020;-53
2021/04/13 14:37:05;;;;;;;37.33;22.20;;;;;;;;;;5057452;28;20039;-49
2021/04/13 14:39:32;;;;;;;58.92;31.77;;;;;;;;;;5056895;28;21582;-50
2021/04/13 14:41:58;;;;;;;48.58;28.33;;;;;;;;;;5057449;28;20028;-50
2021/04/13 14:44:24;;;;;;;22.17;15.18;;;;;;;;;;5057817;28;20059;-52
2021/04/13 14:46:50;;;;;;;70.53;41.00;;;;;;;;;;5057908;28;20024;-51
2021/04/13 14:49:17;;;;;;;45.45;27.35;;;;;;;;;;5057287;28;20028;-53
2021/04/13 14:51:43;;;;;;;55.17;30.75;;;;;;;;;;5056789;28;20094;-53
2021/04/13 14:54:10;;;;;;;42.30;24.90;;;;;;;;;;5056740;28;20027;-51
2021/04/13 14:56:36;;;;;;;40.35;24.90;;;;;;;;;;5057844;28;20038;-53
2021/04/13 14:59:02;;;;;;;69.85;35.00;;;;;;;;;;5057459;28;20043;-51
2021/04/13 15:01:29;;;;;;;64.75;35.80;;;;;;;;;;5056750;28;20315;-53